Ocean Beach, New York
Current Conditions -  °F | °C
As of 5:56 PM on Wednesday 26 Nov 2014 (Local Time) from KISP Reporting Station
Light Rain Light Rain  
Wind Chill: 30°   Ceiling: 900
Heat Index: 39°   Visibility: 10mi
Dew Point: 35°   Wind: 17mph
Humidity: 86%   Direction: 10°N
Pressure: 29.67"   Gusts: 32mph
Location:  40.65°N, 73.16°W
Report Text: KISP 262256Z 01015G28KT 10SM -RA OVC009 04/02 A2967 RMK AO2 PK WND 02031/2209 SLP047 P0004 T00390017
Loading
Personal Weather Stations






























Interactive Weather Map New forecast layout! Learn more

10-Day Weather Forecast

Advertisements
Track Severe Weather on mobile